createdAt,value
2023-02-02T00:01:25.292Z,7.90
2023-02-02T00:03:52.474Z,7.90
2023-02-02T00:06:21.035Z,7.90
2023-02-02T00:08:48.049Z,7.90
2023-02-02T00:11:15.511Z,7.90
2023-02-02T00:13:42.445Z,7.90
2023-02-02T00:16:28.479Z,7.90
2023-02-02T00:18:57.063Z,7.80
2023-02-02T00:21:24.228Z,7.80
2023-02-02T00:23:51.234Z,7.80
2023-02-02T00:26:18.422Z,7.80
2023-02-02T00:28:45.351Z,7.70
2023-02-02T00:31:12.195Z,7.70
2023-02-02T00:33:38.869Z,7.80
2023-02-02T00:36:05.915Z,7.70
2023-02-02T00:38:32.545Z,7.70
2023-02-02T00:40:59.256Z,7.60
2023-02-02T00:43:25.847Z,7.60
2023-02-02T00:45:52.551Z,7.60
2023-02-02T00:48:19.261Z,7.60
2023-02-02T00:50:45.856Z,7.60
2023-02-02T00:53:12.601Z,7.60
2023-02-02T00:55:39.295Z,7.50
2023-02-02T00:58:05.948Z,7.60
2023-02-02T01:00:32.533Z,7.60
2023-02-02T01:03:04.307Z,7.50
2023-02-02T01:05:32.364Z,7.50
2023-02-02T01:07:58.992Z,7.50
2023-02-02T01:10:25.675Z,7.50
2023-02-02T01:12:52.780Z,7.50
2023-02-02T01:15:19.596Z,7.40
2023-02-02T01:17:46.194Z,7.50
2023-02-02T01:20:17.908Z,7.40
2023-02-02T01:22:44.774Z,7.40
2023-02-02T01:25:11.541Z,7.30
2023-02-02T01:27:38.292Z,7.20
2023-02-02T01:30:05.429Z,7.20
2023-02-02T01:32:32.039Z,7.20
2023-02-02T01:34:58.611Z,7.10
2023-02-02T01:37:25.190Z,7.10
2023-02-02T01:39:51.763Z,7.20
2023-02-02T01:42:23.495Z,7.10
2023-02-02T01:44:53.104Z,7.10
2023-02-02T01:47:23.268Z,7.10
2023-02-02T01:49:50.370Z,7.10
2023-02-02T01:52:19.643Z,7.10
2023-02-02T01:54:50.729Z,7.10
2023-02-02T01:57:26.058Z,7.10
2023-02-02T01:59:54.883Z,7.10
2023-02-02T02:02:21.773Z,7.00
2023-02-02T02:04:50.534Z,7.00
2023-02-02T02:07:17.195Z,7.10
2023-02-02T02:09:43.814Z,7.10
2023-02-02T02:12:15.431Z,7.10
2023-02-02T02:15:03.525Z,7.10
2023-02-02T02:17:44.357Z,7.10
2023-02-02T02:20:50.783Z,7.10
2023-02-02T02:24:14.218Z,7.20
2023-02-02T02:26:55.158Z,7.20
2023-02-02T02:29:37.121Z,7.10
2023-02-02T02:32:28.470Z,7.10
2023-02-02T02:35:00.908Z,7.10
2023-02-02T02:37:48.343Z,7.20
2023-02-02T02:40:47.875Z,7.20
2023-02-02T02:43:45.776Z,7.30
2023-02-02T02:46:12.696Z,7.20
2023-02-02T02:48:39.492Z,7.30
2023-02-02T02:51:29.803Z,7.30
2023-02-02T02:53:56.722Z,7.30
2023-02-02T02:56:35.974Z,7.40
2023-02-02T02:59:10.872Z,7.40
2023-02-02T03:01:48.866Z,7.40
2023-02-02T03:04:26.347Z,7.40
2023-02-02T03:07:00.988Z,7.40
2023-02-02T03:09:34.843Z,7.40
2023-02-02T03:12:01.984Z,7.40
2023-02-02T03:14:28.637Z,7.40
2023-02-02T03:16:55.221Z,7.40
2023-02-02T03:19:22.079Z,7.40
2023-02-02T03:21:48.736Z,7.40
2023-02-02T03:24:15.335Z,7.50
2023-02-02T03:26:42.160Z,7.50
2023-02-02T03:29:08.820Z,7.50
2023-02-02T03:31:35.596Z,7.50
2023-02-02T03:34:02.253Z,7.50
2023-02-02T03:36:28.946Z,7.50
2023-02-02T03:38:55.582Z,7.60
2023-02-02T03:41:22.318Z,7.50
2023-02-02T03:43:48.927Z,7.60
2023-02-02T03:46:15.556Z,7.70
2023-02-02T03:48:42.166Z,7.70
2023-02-02T03:51:14.012Z,7.70
2023-02-02T03:53:44.388Z,7.70
2023-02-02T03:56:11.084Z,7.80
2023-02-02T03:58:37.735Z,7.70
2023-02-02T04:01:06.238Z,7.80
2023-02-02T04:03:33.837Z,7.80
2023-02-02T04:06:00.996Z,7.80
2023-02-02T04:08:28.384Z,7.80
2023-02-02T04:10:55.102Z,7.80
2023-02-02T04:13:21.694Z,7.80
2023-02-02T04:15:48.487Z,7.80
2023-02-02T04:18:15.118Z,7.80
2023-02-02T04:20:41.777Z,7.80
2023-02-02T04:23:08.412Z,7.80
2023-02-02T04:25:35.053Z,7.80
2023-02-02T04:28:01.667Z,7.80
2023-02-02T04:30:28.312Z,7.80
2023-02-02T04:32:55.329Z,7.80
2023-02-02T04:35:22.268Z,7.80
2023-02-02T04:37:48.963Z,7.80
2023-02-02T04:40:15.721Z,7.80
2023-02-02T04:42:42.313Z,7.80
2023-02-02T04:45:09.266Z,7.90
2023-02-02T04:47:35.871Z,7.80
2023-02-02T04:50:02.532Z,7.90
2023-02-02T04:52:29.618Z,7.90
2023-02-02T04:54:56.231Z,7.90
2023-02-02T04:57:22.988Z,7.90
2023-02-02T04:59:49.735Z,7.90
2023-02-02T05:02:16.384Z,7.90
2023-02-02T05:04:43.021Z,7.90
2023-02-02T05:07:09.707Z,7.90
2023-02-02T05:09:36.308Z,7.90
2023-02-02T05:12:03.036Z,7.90
2023-02-02T05:14:29.603Z,8.00
2023-02-02T05:16:56.320Z,8.00
2023-02-02T05:19:22.981Z,8.00
2023-02-02T05:21:51.095Z,8.00
2023-02-02T05:24:18.105Z,8.00
2023-02-02T05:26:44.905Z,8.00
2023-02-02T05:29:11.704Z,8.00
2023-02-02T05:31:38.397Z,8.00
2023-02-02T05:34:06.875Z,8.00
2023-02-02T05:36:33.590Z,8.00
2023-02-02T05:39:00.379Z,8.00
2023-02-02T05:41:26.987Z,8.00
2023-02-02T05:43:53.574Z,8.00
2023-02-02T05:46:20.282Z,8.00
2023-02-02T05:48:46.929Z,8.00
2023-02-02T05:51:28.156Z,8.00
2023-02-02T05:53:55.385Z,8.00
2023-02-02T05:56:22.127Z,8.00
2023-02-02T05:58:49.858Z,8.00
2023-02-02T06:01:18.011Z,8.00
2023-02-02T06:03:44.720Z,8.00
2023-02-02T06:06:11.359Z,8.00
2023-02-02T06:08:38.021Z,8.00
2023-02-02T06:11:12.428Z,8.00
2023-02-02T06:13:39.082Z,8.00
2023-02-02T06:16:06.164Z,7.90
2023-02-02T06:18:32.874Z,7.90
2023-02-02T06:21:00.535Z,7.90
2023-02-02T06:23:27.922Z,7.90
2023-02-02T06:25:54.658Z,7.90
2023-02-02T06:28:21.514Z,7.90
2023-02-02T06:30:48.178Z,7.90
2023-02-02T06:33:14.870Z,7.90
2023-02-02T06:35:41.567Z,7.90
2023-02-02T06:38:08.437Z,7.90
2023-02-02T06:40:35.370Z,7.90
2023-02-02T06:43:03.308Z,7.90
2023-02-02T06:45:30.985Z,7.80
2023-02-02T06:48:03.547Z,7.80
2023-02-02T06:50:30.347Z,7.80
2023-02-02T06:52:56.984Z,7.80
2023-02-02T06:55:24.023Z,7.80
2023-02-02T06:58:00.327Z,7.80
2023-02-02T07:00:28.955Z,7.80
2023-02-02T07:02:56.231Z,7.80
2023-02-02T07:05:24.198Z,7.80
2023-02-02T07:07:51.279Z,7.80
2023-02-02T07:11:08.466Z,7.80
2023-02-02T07:13:06.770Z,7.80
2023-02-02T07:15:34.227Z,7.80
2023-02-02T07:18:01.438Z,7.80
2023-02-02T07:20:28.141Z,7.70
2023-02-02T07:22:54.877Z,7.80
2023-02-02T07:25:21.646Z,7.70
2023-02-02T07:27:52.078Z,7.70
2023-02-02T07:30:19.046Z,7.70
2023-02-02T07:32:49.575Z,7.70
2023-02-02T07:35:17.101Z,7.70
2023-02-02T07:37:43.798Z,7.70
2023-02-02T07:40:11.384Z,7.70
2023-02-02T07:42:37.981Z,7.70
2023-02-02T07:45:27.638Z,7.70
2023-02-02T07:47:57.169Z,7.70
2023-02-02T07:50:23.956Z,7.70
2023-02-02T07:52:51.056Z,7.70
2023-02-02T07:55:18.911Z,7.70
2023-02-02T07:57:45.552Z,7.70
2023-02-02T08:00:12.861Z,7.80
2023-02-02T08:02:39.579Z,7.80
2023-02-02T08:05:07.416Z,7.80
2023-02-02T08:07:37.159Z,7.80
2023-02-02T08:10:04.045Z,7.80
2023-02-02T08:12:30.657Z,7.90
2023-02-02T08:14:58.593Z,7.90
2023-02-02T08:17:25.221Z,7.90
2023-02-02T08:19:52.025Z,7.90
2023-02-02T08:22:20.335Z,7.90
2023-02-02T08:24:47.991Z,7.90
2023-02-02T08:27:16.085Z,7.90
2023-02-02T08:29:43.049Z,7.90
2023-02-02T08:32:09.677Z,8.00
2023-02-02T08:34:36.970Z,8.00
2023-02-02T08:37:04.400Z,8.00
2023-02-02T08:39:31.163Z,8.00
2023-02-02T08:41:58.263Z,8.00
2023-02-02T08:44:26.376Z,8.00
2023-02-02T08:46:54.605Z,8.00
2023-02-02T08:49:21.463Z,8.00
2023-02-02T08:51:48.049Z,8.10
2023-02-02T08:54:14.618Z,8.10
2023-02-02T08:56:41.210Z,8.10
2023-02-02T08:59:08.115Z,8.10
2023-02-02T09:01:35.744Z,8.10
2023-02-02T09:04:05.234Z,8.10
2023-02-02T09:06:38.518Z,8.20
2023-02-02T09:09:07.365Z,8.20
2023-02-02T09:11:34.222Z,8.20
2023-02-02T09:14:03.013Z,8.30
2023-02-02T09:16:30.034Z,8.30
2023-02-02T09:18:57.574Z,8.30
2023-02-02T09:21:24.839Z,8.30
2023-02-02T09:23:55.890Z,8.30
2023-02-02T09:26:24.031Z,8.30
2023-02-02T09:29:02.834Z,8.40
2023-02-02T09:31:32.566Z,8.50
2023-02-02T09:34:07.615Z,8.40
2023-02-02T09:36:34.941Z,8.50
2023-02-02T09:39:01.707Z,8.50
2023-02-02T09:41:40.834Z,8.50
2023-02-02T09:44:21.002Z,8.50
2023-02-02T09:47:06.690Z,8.50
2023-02-02T09:49:56.801Z,8.50
2023-02-02T09:52:47.716Z,8.50
2023-02-02T09:55:37.787Z,8.50
2023-02-02T09:58:30.935Z,8.50
2023-02-02T10:01:03.581Z,8.50
2023-02-02T10:03:33.420Z,8.50
2023-02-02T10:06:18.418Z,8.50
2023-02-02T10:08:52.031Z,8.50
2023-02-02T10:11:30.891Z,8.50
2023-02-02T10:14:03.205Z,8.60
2023-02-02T10:16:32.148Z,8.60
2023-02-02T10:19:04.850Z,8.50
2023-02-02T10:21:51.558Z,8.60
2023-02-02T10:24:21.929Z,8.60
2023-02-02T10:26:52.276Z,8.60
2023-02-02T10:29:48.172Z,8.60
2023-02-02T10:32:24.626Z,8.60
2023-02-02T10:35:10.931Z,8.60
2023-02-02T10:37:54.036Z,8.60
2023-02-02T10:40:39.080Z,8.60
2023-02-02T10:43:38.294Z,8.70
2023-02-02T10:46:05.981Z,8.70
2023-02-02T10:48:35.882Z,8.60
2023-02-02T10:51:32.270Z,8.70
2023-02-02T10:54:05.128Z,8.60
2023-02-02T10:56:40.404Z,8.60
2023-02-02T10:59:15.493Z,8.70
2023-02-02T11:01:42.176Z,8.70
2023-02-02T11:04:29.331Z,8.60
2023-02-02T11:06:56.471Z,8.60
2023-02-02T11:09:32.410Z,8.60
2023-02-02T11:12:25.600Z,8.70
2023-02-02T11:15:30.992Z,8.70
2023-02-02T11:18:15.821Z,8.80
2023-02-02T11:20:42.570Z,8.90
2023-02-02T11:23:17.929Z,8.90
2023-02-02T11:25:44.926Z,8.90
2023-02-02T11:28:22.677Z,8.90
2023-02-02T11:30:52.379Z,8.90
2023-02-02T11:33:34.064Z,8.90
2023-02-02T11:36:03.337Z,9.00
2023-02-02T11:38:30.452Z,8.90
2023-02-02T11:41:03.887Z,9.00
2023-02-02T11:43:35.008Z,9.00
2023-02-02T11:46:04.995Z,9.00
2023-02-02T11:48:38.327Z,9.00
2023-02-02T11:51:06.664Z,9.00
2023-02-02T11:53:44.946Z,9.00
2023-02-02T11:56:25.311Z,9.00
2023-02-02T11:58:56.521Z,9.00
2023-02-02T12:01:32.656Z,9.00
2023-02-02T12:04:02.428Z,9.00
2023-02-02T12:06:37.240Z,9.00
2023-02-02T12:09:15.856Z,9.00
2023-02-02T12:12:20.073Z,9.00
2023-02-02T12:15:07.578Z,9.00
2023-02-02T12:17:45.001Z,9.00
2023-02-02T12:20:11.678Z,9.00
2023-02-02T12:22:57.007Z,9.00
2023-02-02T12:25:45.397Z,9.00
2023-02-02T12:28:20.941Z,9.00
2023-02-02T12:31:08.951Z,9.00
2023-02-02T12:33:54.122Z,9.00
2023-02-02T12:36:35.733Z,9.00
2023-02-02T12:39:23.917Z,8.90
2023-02-02T12:42:26.131Z,8.90
2023-02-02T12:45:15.753Z,8.90
2023-02-02T12:48:03.675Z,8.90
2023-02-02T12:50:37.885Z,8.80
2023-02-02T12:53:23.325Z,8.80
2023-02-02T12:56:15.803Z,8.70
2023-02-02T12:59:00.978Z,8.70
2023-02-02T13:02:02.306Z,8.70
2023-02-02T13:07:49.572Z,8.50
2023-02-02T13:10:29.094Z,8.50
2023-02-02T13:13:02.346Z,8.50
2023-02-02T13:15:46.494Z,8.60
2023-02-02T13:18:26.688Z,8.60
2023-02-02T13:21:01.641Z,8.70
2023-02-02T13:24:00.304Z,8.70
2023-02-02T13:26:38.604Z,8.80
2023-02-02T13:29:29.880Z,8.70
2023-02-02T13:32:19.591Z,8.60
2023-02-02T13:34:54.484Z,8.50
2023-02-02T13:37:46.428Z,8.50
2023-02-02T13:40:24.620Z,8.50
2023-02-02T13:43:13.193Z,8.40
2023-02-02T13:46:08.994Z,8.30
2023-02-02T13:48:53.689Z,8.30
2023-02-02T13:51:50.313Z,8.40
2023-02-02T13:54:38.511Z,8.40
2023-02-02T13:57:34.994Z,8.40
2023-02-02T14:00:21.028Z,8.40
2023-02-02T14:02:57.179Z,8.40
2023-02-02T14:05:29.942Z,8.40
2023-02-02T14:08:04.244Z,8.50
2023-02-02T14:10:44.144Z,8.40
2023-02-02T14:13:32.334Z,8.50
2023-02-02T14:16:03.112Z,8.40
2023-02-02T14:18:48.293Z,8.40
2023-02-02T14:21:44.261Z,8.50
2023-02-02T14:24:26.052Z,8.40
2023-02-02T14:26:54.873Z,8.40
2023-02-02T14:29:30.234Z,8.30
2023-02-02T14:32:22.806Z,8.40
2023-02-02T14:34:55.184Z,8.30
2023-02-02T14:37:24.745Z,8.30
2023-02-02T14:39:51.278Z,8.30
2023-02-02T14:43:01.764Z,8.30
2023-02-02T14:45:40.941Z,8.30
2023-02-02T14:48:07.494Z,8.30
2023-02-02T14:50:43.155Z,8.30
2023-02-02T14:53:13.079Z,8.30
2023-02-02T14:55:56.421Z,8.20
2023-02-02T14:58:30.232Z,8.20
2023-02-02T15:01:31.192Z,8.20
2023-02-02T15:04:00.873Z,8.20
2023-02-02T15:06:34.719Z,8.20
2023-02-02T15:09:20.000Z,8.30
2023-02-02T15:12:00.846Z,8.30
2023-02-02T15:14:53.165Z,8.30
2023-02-02T15:17:20.887Z,8.30
2023-02-02T15:20:08.226Z,8.30
2023-02-02T15:22:53.635Z,8.30
2023-02-02T15:25:25.218Z,8.20
2023-02-02T15:27:57.988Z,8.20
2023-02-02T15:30:26.380Z,8.20
2023-02-02T15:32:53.509Z,8.20
2023-02-02T15:35:28.657Z,8.20
2023-02-02T15:38:00.727Z,8.20
2023-02-02T15:40:30.487Z,8.30
2023-02-02T15:43:04.356Z,8.30
2023-02-02T15:45:43.256Z,8.30
2023-02-02T15:48:30.138Z,8.20
2023-02-02T15:51:03.374Z,8.20
2023-02-02T15:53:43.631Z,8.20
2023-02-02T15:56:29.346Z,8.20
2023-02-02T15:58:58.633Z,8.20
2023-02-02T16:01:27.199Z,8.20
2023-02-02T16:04:20.467Z,8.20
2023-02-02T16:06:48.387Z,8.20
2023-02-02T16:09:24.788Z,8.20
2023-02-02T16:11:52.088Z,8.20
2023-02-02T16:14:18.954Z,8.20
2023-02-02T16:16:49.189Z,8.20
2023-02-02T16:19:24.509Z,8.20
2023-02-02T16:21:56.426Z,8.20
2023-02-02T16:24:31.309Z,8.20
2023-02-02T16:27:00.356Z,8.20
2023-02-02T16:29:28.391Z,8.10
2023-02-02T16:31:56.353Z,8.20
2023-02-02T16:34:55.537Z,8.20
2023-02-02T16:37:28.209Z,8.20
2023-02-02T16:39:56.587Z,8.20
2023-02-02T16:42:29.162Z,8.20
2023-02-02T16:45:00.401Z,8.10
2023-02-02T16:47:26.930Z,8.20
2023-02-02T16:50:05.638Z,8.20
2023-02-02T16:52:32.416Z,8.20
2023-02-02T16:54:59.100Z,8.20
2023-02-02T16:57:29.193Z,8.20
2023-02-02T16:59:59.614Z,8.20
2023-02-02T17:02:39.013Z,8.20
2023-02-02T17:05:16.607Z,8.20
2023-02-02T17:07:49.921Z,8.20
2023-02-02T17:10:42.158Z,8.20
2023-02-02T17:13:32.252Z,8.20
2023-02-02T17:15:59.666Z,8.20
2023-02-02T17:18:26.684Z,8.20
2023-02-02T17:21:03.593Z,8.20
2023-02-02T17:23:31.990Z,8.20
2023-02-02T17:25:59.211Z,8.20
2023-02-02T17:28:26.441Z,8.20
2023-02-02T17:30:59.955Z,8.30
2023-02-02T17:33:27.489Z,8.30
2023-02-02T17:35:56.245Z,8.30
2023-02-02T17:38:24.323Z,8.30
2023-02-02T17:40:51.057Z,8.30
2023-02-02T17:43:17.711Z,8.30
2023-02-02T17:45:44.284Z,8.30
2023-02-02T17:48:12.978Z,8.30
2023-02-02T17:50:41.330Z,8.30
2023-02-02T17:53:20.209Z,8.30
2023-02-02T17:55:49.643Z,8.40
2023-02-02T17:58:17.472Z,8.30
2023-02-02T18:00:51.819Z,8.30
2023-02-02T18:03:23.752Z,8.30
2023-02-02T18:05:50.884Z,8.30
2023-02-02T18:08:18.137Z,8.30
2023-02-02T18:10:45.142Z,8.30
2023-02-02T18:13:15.838Z,8.20
2023-02-02T18:15:42.929Z,8.30
2023-02-02T18:18:09.596Z,8.30
2023-02-02T18:20:36.373Z,8.30
2023-02-02T18:23:02.992Z,8.30
2023-02-02T18:25:29.551Z,8.20
2023-02-02T18:27:57.469Z,8.20
2023-02-02T18:30:24.592Z,8.20
2023-02-02T18:32:51.522Z,8.20
2023-02-02T18:35:18.290Z,8.20
2023-02-02T18:37:44.859Z,8.20
2023-02-02T18:40:12.148Z,8.20
2023-02-02T18:42:38.762Z,8.20
2023-02-02T18:45:05.960Z,8.20
2023-02-02T18:47:32.808Z,8.20
2023-02-02T18:49:59.418Z,8.20
2023-02-02T18:52:26.244Z,8.20
2023-02-02T18:54:52.862Z,8.20
2023-02-02T18:57:19.486Z,8.20
2023-02-02T18:59:46.108Z,8.20
2023-02-02T19:02:14.884Z,8.20
2023-02-02T19:05:01.756Z,8.20
2023-02-02T19:07:46.706Z,8.20
2023-02-02T19:10:13.478Z,8.20
2023-02-02T19:12:40.286Z,8.10
2023-02-02T19:15:12.826Z,8.10
2023-02-02T19:17:39.874Z,8.10
2023-02-02T19:20:26.142Z,8.10
2023-02-02T19:23:14.935Z,8.00
2023-02-02T19:25:45.538Z,8.00
2023-02-02T19:28:23.750Z,8.00
2023-02-02T19:30:52.934Z,7.90
2023-02-02T19:33:21.002Z,7.90
2023-02-02T19:35:52.280Z,7.90
2023-02-02T19:38:20.560Z,7.90
2023-02-02T19:40:47.935Z,7.90
2023-02-02T19:43:28.019Z,7.90
2023-02-02T19:45:57.105Z,7.90
2023-02-02T19:48:26.977Z,7.90
2023-02-02T19:50:55.802Z,7.90
2023-02-02T19:53:34.977Z,7.90
2023-02-02T19:56:02.319Z,7.90
2023-02-02T19:58:37.005Z,7.90
2023-02-02T20:01:14.773Z,7.90
2023-02-02T20:03:43.144Z,7.90
2023-02-02T20:06:17.081Z,7.90
2023-02-02T20:08:44.187Z,7.90
2023-02-02T20:11:35.534Z,7.90
2023-02-02T20:14:33.016Z,7.90
2023-02-02T20:17:06.467Z,7.90
2023-02-02T20:19:36.826Z,7.90
2023-02-02T20:22:16.247Z,7.90
2023-02-02T20:24:42.803Z,8.00
2023-02-02T20:27:28.780Z,7.90
2023-02-02T20:30:01.210Z,8.00
2023-02-02T20:32:40.280Z,8.00
2023-02-02T20:35:38.514Z,8.00
2023-02-02T20:38:25.004Z,8.10
2023-02-02T20:40:52.299Z,8.10
2023-02-02T20:43:18.925Z,8.10
2023-02-02T20:45:45.604Z,8.10
2023-02-02T20:48:12.443Z,8.20
2023-02-02T20:50:40.171Z,8.10
2023-02-02T20:53:06.765Z,8.10
2023-02-02T20:55:36.013Z,8.10
2023-02-02T20:58:04.299Z,8.10
2023-02-02T21:00:31.128Z,8.20
2023-02-02T21:02:57.930Z,8.20
2023-02-02T21:05:24.825Z,8.20
2023-02-02T21:07:54.608Z,8.20
2023-02-02T21:10:22.628Z,8.20
2023-02-02T21:12:51.829Z,8.20
2023-02-02T21:15:19.071Z,8.30
2023-02-02T21:17:45.718Z,8.30
2023-02-02T21:20:13.666Z,8.30
2023-02-02T21:22:40.382Z,8.30
2023-02-02T21:25:07.300Z,8.30
2023-02-02T21:27:33.972Z,8.30
2023-02-02T21:30:00.615Z,8.40
2023-02-02T21:32:27.191Z,8.40
2023-02-02T21:34:53.733Z,8.40
2023-02-02T21:37:20.367Z,8.50
2023-02-02T21:39:51.361Z,8.50
2023-02-02T21:42:21.395Z,8.50
2023-02-02T21:44:52.394Z,8.50
2023-02-02T21:47:22.031Z,8.50
2023-02-02T21:49:48.626Z,8.50
2023-02-02T21:52:17.390Z,8.60
2023-02-02T21:54:45.183Z,8.50
2023-02-02T21:57:21.204Z,8.50
2023-02-02T21:59:56.205Z,8.60
2023-02-02T22:02:45.242Z,8.50
2023-02-02T22:05:21.067Z,8.50
2023-02-02T22:07:49.487Z,8.50
2023-02-02T22:10:38.123Z,8.50
2023-02-02T22:13:20.605Z,8.50
2023-02-02T22:15:49.681Z,8.50
2023-02-02T22:18:26.293Z,8.50
2023-02-02T22:20:56.208Z,8.50
2023-02-02T22:23:27.573Z,8.50
2023-02-02T22:25:58.998Z,8.50
2023-02-02T22:28:32.535Z,8.50
2023-02-02T22:31:00.523Z,8.50
2023-02-02T22:33:27.398Z,8.50
2023-02-02T22:35:54.241Z,8.50
2023-02-02T22:38:23.370Z,8.50
2023-02-02T22:40:51.659Z,8.50
2023-02-02T22:43:19.872Z,8.50
2023-02-02T22:45:46.994Z,8.50
2023-02-02T22:48:14.936Z,8.60
2023-02-02T22:50:41.964Z,8.60
2023-02-02T22:53:08.651Z,8.60
2023-02-02T22:55:35.300Z,8.60
2023-02-02T22:58:01.880Z,8.60
2023-02-02T23:00:32.905Z,8.70
2023-02-02T23:02:59.633Z,8.70
2023-02-02T23:05:27.435Z,8.70
2023-02-02T23:07:54.613Z,8.80
2023-02-02T23:10:24.651Z,8.70
2023-02-02T23:12:53.578Z,8.70
2023-02-02T23:15:20.200Z,8.70
2023-02-02T23:17:47.138Z,8.70
2023-02-02T23:20:15.318Z,8.70
2023-02-02T23:22:41.932Z,8.70
2023-02-02T23:25:08.807Z,8.70
2023-02-02T23:27:35.327Z,8.70
2023-02-02T23:30:02.108Z,8.70
2023-02-02T23:32:29.717Z,8.70
2023-02-02T23:34:56.258Z,8.70
2023-02-02T23:37:22.786Z,8.60
2023-02-02T23:39:49.332Z,8.60
2023-02-02T23:42:15.874Z,8.70
2023-02-02T23:44:42.435Z,8.60
2023-02-02T23:47:09.718Z,8.70
2023-02-02T23:49:36.816Z,8.60
2023-02-02T23:52:03.722Z,8.60
2023-02-02T23:54:30.983Z,8.70
2023-02-02T23:56:57.713Z,8.70
2023-02-02T23:59:24.531Z,8.70
